createdAt,value
2017-11-13T00:00:40.071Z,99382.37
2017-11-13T00:03:42.345Z,99379.91
2017-11-13T00:06:44.600Z,99378.25
2017-11-13T00:09:46.135Z,99389.36
2017-11-13T00:12:47.577Z,99389.48
2017-11-13T00:15:49.053Z,99396.70
2017-11-13T00:18:50.550Z,99406.27
2017-11-13T00:25:00.334Z,99410.38
2017-11-13T00:28:02.564Z,99412.98
2017-11-13T00:31:04.080Z,99423.30
2017-11-13T00:34:05.536Z,99425.78
2017-11-13T00:37:07.003Z,99420.45
2017-11-13T00:40:08.533Z,99430.02
2017-11-13T00:43:10.787Z,99433.63
2017-11-13T00:46:12.507Z,99436.79
2017-11-13T00:49:13.956Z,99429.45
2017-11-13T00:52:15.532Z,99444.39
2017-11-13T00:55:16.998Z,99447.94
2017-11-13T00:58:18.505Z,99445.19
2017-11-13T01:01:20.012Z,99451.14
2017-11-13T01:04:21.549Z,99464.73
2017-11-13T01:07:23.045Z,99451.09
2017-11-13T01:13:32.720Z,99456.44
2017-11-13T01:16:34.962Z,99459.03
2017-11-13T01:19:36.749Z,99465.39
2017-11-13T01:22:38.950Z,99458.48
2017-11-13T01:25:40.427Z,99473.01
2017-11-13T01:28:41.963Z,99475.63
2017-11-13T01:31:43.497Z,99481.64
2017-11-13T01:34:45.705Z,99484.38
2017-11-13T01:37:47.319Z,99498.67
2017-11-13T01:40:48.889Z,99500.41
2017-11-13T01:43:51.105Z,99502.03
2017-11-13T01:46:52.664Z,99515.65
2017-11-13T01:49:54.104Z,99501.50
2017-11-13T01:52:55.734Z,99498.80
2017-11-13T01:55:57.163Z,99505.06
2017-11-13T01:58:58.612Z,99511.58
2017-11-13T02:01:59.977Z,99507.45
2017-11-13T02:05:02.232Z,99518.63
2017-11-13T02:08:03.666Z,99516.32
2017-11-13T02:11:05.157Z,99518.55
2017-11-13T02:14:07.424Z,99528.30
2017-11-13T02:17:09.017Z,99529.57
2017-11-13T02:20:10.530Z,99536.98
2017-11-13T02:23:12.011Z,99547.62
2017-11-13T02:26:14.269Z,99550.61
2017-11-13T02:29:16.443Z,99555.72
2017-11-13T02:32:18.633Z,99566.68
2017-11-13T02:35:20.046Z,99563.63
2017-11-13T02:41:30.473Z,99561.65
2017-11-13T02:44:31.929Z,99562.58
2017-11-13T02:47:33.427Z,99574.38
2017-11-13T02:50:34.875Z,99576.08
2017-11-13T02:53:36.355Z,99574.28
2017-11-13T02:56:38.584Z,99581.87
2017-11-13T02:59:40.064Z,99590.46
2017-11-13T03:02:41.442Z,99591.85
2017-11-13T03:05:42.880Z,99593.30
2017-11-13T03:08:45.051Z,99603.11
2017-11-13T03:11:47.281Z,99599.72
2017-11-13T03:14:48.774Z,99597.95
2017-11-13T03:17:50.937Z,99603.53
2017-11-13T03:20:53.106Z,99606.23
2017-11-13T03:23:55.290Z,99615.66
2017-11-13T03:26:57.482Z,99628.85
2017-11-13T03:29:58.915Z,99631.21
2017-11-13T03:33:01.098Z,99637.30
2017-11-13T03:36:02.556Z,99646.26
2017-11-13T03:39:03.965Z,99650.27
2017-11-13T03:42:05.369Z,99652.95
2017-11-13T03:45:06.803Z,99652.33
2017-11-13T03:48:08.224Z,99673.63
2017-11-13T03:51:09.565Z,99672.78
2017-11-13T03:54:11.047Z,99677.00
2017-11-13T03:57:12.535Z,99681.26
2017-11-13T04:00:13.966Z,99678.80
2017-11-13T04:03:15.386Z,99693.39
2017-11-13T04:06:17.528Z,99693.33
2017-11-13T04:09:18.977Z,99698.38
2017-11-13T04:12:20.383Z,99706.67
2017-11-13T04:15:21.948Z,99709.65
2017-11-13T04:18:23.376Z,99722.61
2017-11-13T04:21:25.559Z,99724.52
2017-11-13T04:24:27.014Z,99716.59
2017-11-13T04:27:28.405Z,99724.98
2017-11-13T04:30:29.863Z,99728.08
2017-11-13T04:33:31.284Z,99727.41
2017-11-13T04:36:32.675Z,99736.09
2017-11-13T04:39:34.066Z,99722.02
2017-11-13T04:42:36.259Z,99737.31
2017-11-13T04:45:37.637Z,99745.61
2017-11-13T04:48:39.092Z,99748.47
2017-11-13T04:51:40.844Z,99747.16
2017-11-13T04:54:42.964Z,99756.52
2017-11-13T04:57:45.170Z,99768.23
2017-11-13T05:00:46.560Z,99770.06
2017-11-13T05:03:47.991Z,99772.89
2017-11-13T05:06:49.460Z,99781.22
2017-11-13T05:09:50.927Z,99782.24
2017-11-13T05:12:53.141Z,99784.92
2017-11-13T05:15:54.554Z,99784.45
2017-11-13T05:18:56.760Z,99788.06
2017-11-13T05:21:58.249Z,99796.75
2017-11-13T05:24:59.698Z,99803.26
2017-11-13T05:28:01.139Z,99805.86
2017-11-13T05:31:02.584Z,99806.47
2017-11-13T05:34:03.987Z,99802.62
2017-11-13T05:37:06.157Z,99817.77
2017-11-13T05:40:08.262Z,99821.43
2017-11-13T05:43:09.705Z,99815.55
2017-11-13T05:46:11.246Z,99818.55
2017-11-13T05:49:12.643Z,99825.27
2017-11-13T05:52:14.158Z,99843.56
2017-11-13T05:55:15.539Z,99847.41
2017-11-13T05:58:16.964Z,99844.52
2017-11-13T06:01:18.424Z,99857.72
2017-11-13T06:04:19.807Z,99861.94
2017-11-13T06:07:21.235Z,99871.12
2017-11-13T06:10:22.645Z,99867.80
2017-11-13T06:13:24.766Z,99868.60
2017-11-13T06:16:26.180Z,99866.20
2017-11-13T06:19:28.302Z,99874.56
2017-11-13T06:22:29.721Z,99876.41
2017-11-13T06:25:31.128Z,99882.05
2017-11-13T06:28:32.511Z,99881.23
2017-11-13T06:31:33.878Z,99882.12
2017-11-13T06:34:35.289Z,99884.77
2017-11-13T06:37:37.456Z,99892.77
2017-11-13T06:40:39.572Z,99908.13
2017-11-13T06:43:40.991Z,99910.89
2017-11-13T06:46:42.395Z,99910.37
2017-11-13T06:49:43.879Z,99908.92
2017-11-13T06:52:46.021Z,99925.59
2017-11-13T06:55:47.512Z,99926.56
2017-11-13T06:58:49.649Z,99924.20
2017-11-13T07:01:51.080Z,99933.97
2017-11-13T07:04:52.521Z,99941.39
2017-11-13T07:07:53.989Z,99949.25
2017-11-13T07:10:55.364Z,99956.63
2017-11-13T07:13:56.790Z,99974.97
2017-11-13T07:16:58.231Z,99970.37
2017-11-13T07:19:59.640Z,99968.40
2017-11-13T07:23:01.773Z,99970.37
2017-11-13T07:26:03.220Z,99981.30
2017-11-13T07:29:04.672Z,99984.16
2017-11-13T07:32:06.142Z,99995.00
2017-11-13T07:35:07.581Z,99990.52
2017-11-13T07:38:09.753Z,100000.25
2017-11-13T07:41:11.176Z,99993.97
2017-11-13T07:44:12.504Z,99996.52
2017-11-13T07:47:14.544Z,100001.20
2017-11-13T07:50:15.832Z,100014.41
2017-11-13T07:53:17.117Z,100016.34
2017-11-13T07:56:18.403Z,100023.09
2017-11-13T07:59:20.439Z,100017.53
2017-11-13T08:02:21.718Z,100024.43
2017-11-13T08:05:23.806Z,100046.30
2017-11-13T08:08:25.104Z,100035.40
2017-11-13T08:11:26.801Z,100038.17
2017-11-13T08:14:28.901Z,100045.37
2017-11-13T08:17:30.230Z,100049.17
2017-11-13T08:20:31.556Z,100058.63
2017-11-13T08:23:33.566Z,100062.48
2017-11-13T08:26:34.917Z,100055.20
2017-11-13T08:29:36.245Z,100076.95
2017-11-13T08:32:37.586Z,100068.73
2017-11-13T08:35:39.711Z,100079.26
2017-11-13T08:38:40.973Z,100089.16
2017-11-13T08:41:42.307Z,100086.17
2017-11-13T08:44:43.590Z,100091.95
2017-11-13T08:47:47.673Z,100093.46
2017-11-13T08:50:49.028Z,100102.20
2017-11-13T08:53:50.510Z,100106.88
2017-11-13T08:56:52.601Z,100105.01
2017-11-13T08:59:53.884Z,100107.58
2017-11-13T09:02:55.211Z,100114.25
2017-11-13T09:05:56.489Z,100111.14
2017-11-13T09:08:57.799Z,100128.87
2017-11-13T09:11:59.850Z,100120.26
2017-11-13T09:15:01.894Z,100124.98
2017-11-13T09:18:03.502Z,100126.75
2017-11-13T09:21:04.865Z,100130.27
2017-11-13T09:24:06.197Z,100136.55
2017-11-13T09:27:07.525Z,100148.38
2017-11-13T09:30:09.616Z,100157.71
2017-11-13T09:33:10.915Z,100157.78
2017-11-13T09:36:12.270Z,100155.78
2017-11-13T09:39:13.596Z,100152.56
2017-11-13T09:42:15.097Z,100167.59
2017-11-13T09:45:17.296Z,100162.75
2017-11-13T09:48:18.697Z,100174.10
2017-11-13T09:51:20.097Z,100177.91
2017-11-13T09:54:21.507Z,100186.78
2017-11-13T09:57:22.917Z,100184.05
2017-11-13T10:00:24.361Z,100180.77
2017-11-13T10:03:26.222Z,100188.53
2017-11-13T10:06:27.643Z,100192.83
2017-11-13T10:09:29.768Z,100194.84
2017-11-13T10:12:31.190Z,100205.09
2017-11-13T10:15:32.615Z,100209.48
2017-11-13T10:18:34.789Z,100210.13
2017-11-13T10:21:36.874Z,100208.77
2017-11-13T10:24:38.313Z,100209.41
2017-11-13T10:27:39.710Z,100211.05
2017-11-13T10:30:41.140Z,100205.46
2017-11-13T10:33:42.522Z,100215.62
2017-11-13T10:36:43.913Z,100202.75
2017-11-13T10:39:45.304Z,100206.93
2017-11-13T10:42:46.612Z,100209.39
2017-11-13T10:45:48.709Z,100204.23
2017-11-13T10:48:50.061Z,100219.78
2017-11-13T10:51:51.452Z,100214.22
2017-11-13T10:54:52.847Z,100210.41
2017-11-13T10:57:54.256Z,100209.19
2017-11-13T11:00:55.662Z,100221.40
2017-11-13T11:03:57.052Z,100216.42
2017-11-13T11:06:58.502Z,100215.86
2017-11-13T11:09:59.877Z,100214.17
2017-11-13T11:13:01.273Z,100225.39
2017-11-13T11:16:07.604Z,100220.81
2017-11-13T11:19:10.645Z,100227.05
2017-11-13T11:22:12.945Z,100229.27
2017-11-13T11:25:14.353Z,100231.80
2017-11-13T11:28:15.806Z,100228.16
2017-11-13T11:31:20.119Z,100235.48
2017-11-13T11:38:00.710Z,100224.64
2017-11-13T11:41:03.984Z,100240.09
2017-11-13T11:44:11.883Z,100228.44
2017-11-13T11:47:13.984Z,100234.03
2017-11-13T11:50:15.331Z,100224.48
2017-11-13T11:53:16.760Z,100229.33
2017-11-13T11:56:18.895Z,100224.75
2017-11-13T11:59:20.249Z,100241.80
2017-11-13T12:02:21.686Z,100238.47
2017-11-13T12:05:23.083Z,100244.64
2017-11-13T12:08:25.232Z,100244.67
2017-11-13T12:11:26.649Z,100259.53
2017-11-13T12:14:27.994Z,100265.67
2017-11-13T12:17:29.389Z,100254.86
2017-11-13T12:20:31.522Z,100269.22
2017-11-13T12:23:32.924Z,100272.13
2017-11-13T12:26:35.007Z,100277.05
2017-11-13T12:29:36.391Z,100275.48
2017-11-13T12:32:38.531Z,100290.93
2017-11-13T12:35:39.933Z,100287.89
2017-11-13T12:38:41.299Z,100294.02
2017-11-13T12:41:43.452Z,100290.86
2017-11-13T12:44:44.951Z,100279.48
2017-11-13T12:47:46.352Z,100284.63
2017-11-13T12:50:48.013Z,100293.70
2017-11-13T12:53:49.359Z,100290.49
2017-11-13T12:56:50.832Z,100283.88
2017-11-13T12:59:52.231Z,100280.33
2017-11-13T13:02:53.668Z,100288.16
2017-11-13T13:05:55.027Z,100284.13
2017-11-13T13:08:56.393Z,100276.72
2017-11-13T13:11:57.758Z,100281.15
2017-11-13T13:14:59.195Z,100278.38
2017-11-13T13:18:00.599Z,100295.56
2017-11-13T13:21:02.652Z,100293.56
2017-11-13T13:24:04.753Z,100302.16
2017-11-13T13:27:06.118Z,100303.94
2017-11-13T13:30:07.513Z,100304.20
2017-11-13T13:33:08.870Z,100305.16
2017-11-13T13:36:10.537Z,100313.89
2017-11-13T13:39:12.643Z,100307.83
2017-11-13T13:42:20.945Z,100317.16
2017-11-13T13:45:22.301Z,100318.84
2017-11-13T13:48:23.723Z,100317.33
2017-11-13T13:51:25.836Z,100321.75
2017-11-13T13:54:27.157Z,100322.61
2017-11-13T13:57:29.268Z,100333.11
2017-11-13T14:00:30.613Z,100333.39
2017-11-13T14:03:31.997Z,100327.09
2017-11-13T14:06:33.293Z,100332.16
2017-11-13T14:09:34.646Z,100341.94
2017-11-13T14:12:36.002Z,100343.89
2017-11-13T14:15:37.348Z,100334.38
2017-11-13T14:18:38.733Z,100351.16
2017-11-13T14:21:40.125Z,100353.48
2017-11-13T14:24:42.298Z,100354.84
2017-11-13T14:27:43.651Z,100361.14
2017-11-13T14:30:45.120Z,100356.80
2017-11-13T14:33:46.661Z,100356.48
2017-11-13T14:36:48.062Z,100365.21
2017-11-13T14:39:49.505Z,100362.20
2017-11-13T14:42:50.930Z,100367.56
2017-11-13T14:45:52.404Z,100376.45
2017-11-13T14:48:53.754Z,100379.26
2017-11-13T14:51:55.155Z,100378.95
2017-11-13T14:54:57.276Z,100383.49
2017-11-13T14:57:58.656Z,100379.70
2017-11-13T15:01:00.057Z,100378.16
2017-11-13T15:04:01.463Z,100379.48
2017-11-13T15:07:02.818Z,100370.89
2017-11-13T15:10:04.093Z,100379.66
2017-11-13T15:13:05.464Z,100388.64
2017-11-13T15:16:06.712Z,100407.38
2017-11-13T15:19:08.045Z,100398.55
2017-11-13T15:22:09.325Z,100419.22
2017-11-13T15:25:10.682Z,100421.57
2017-11-13T15:28:11.945Z,100423.47
2017-11-13T15:31:13.246Z,100429.38
2017-11-13T15:34:14.602Z,100437.75
2017-11-13T15:37:15.860Z,100436.05
2017-11-13T15:40:17.165Z,100437.28
2017-11-13T15:43:19.232Z,100446.11
2017-11-13T15:46:21.273Z,100444.04
2017-11-13T15:49:22.561Z,100456.52
2017-11-13T15:52:23.831Z,100464.00
2017-11-13T15:55:25.112Z,100471.42
2017-11-13T15:58:26.408Z,100460.19
2017-11-13T16:01:27.747Z,100469.81
2017-11-13T16:04:29.788Z,100471.57
2017-11-13T16:07:31.112Z,100464.58
2017-11-13T16:10:32.384Z,100478.61
2017-11-13T16:13:33.678Z,100481.13
2017-11-13T16:16:34.972Z,100482.50
2017-11-13T16:19:36.282Z,100486.45
2017-11-13T16:22:37.613Z,100485.98
2017-11-13T16:25:39.659Z,100486.03
2017-11-13T16:28:40.992Z,100489.19
2017-11-13T16:31:42.282Z,100479.94
2017-11-13T16:34:43.654Z,100493.14
2017-11-13T16:37:44.946Z,100484.77
2017-11-13T16:40:46.242Z,100487.78
2017-11-13T16:43:47.514Z,100483.77
2017-11-13T16:46:48.833Z,100487.20
2017-11-13T16:49:50.141Z,100500.73
2017-11-13T16:52:51.428Z,100493.91
2017-11-13T16:55:52.734Z,100501.30
2017-11-13T16:58:54.038Z,100520.19
2017-11-13T17:01:55.366Z,100519.30
2017-11-13T17:04:57.391Z,100525.41
2017-11-13T17:07:58.736Z,100529.81
2017-11-13T17:11:00.017Z,100544.41
2017-11-13T17:14:02.080Z,100540.88
2017-11-13T17:17:03.355Z,100538.98
2017-11-13T17:20:04.640Z,100550.38
2017-11-13T17:23:05.940Z,100542.51
2017-11-13T17:26:07.990Z,100561.45
2017-11-13T17:29:10.880Z,100556.11
2017-11-13T17:32:12.227Z,100556.97
2017-11-13T17:35:14.413Z,100562.66
2017-11-13T17:38:15.775Z,100572.42
2017-11-13T17:41:17.202Z,100570.33
2017-11-13T17:44:18.585Z,100576.01
2017-11-13T17:47:19.965Z,100584.50
2017-11-13T17:50:21.313Z,100580.58
2017-11-13T17:53:22.610Z,100590.78
2017-11-13T17:56:24.261Z,100586.87
2017-11-13T17:59:25.584Z,100598.27
2017-11-13T18:02:27.000Z,100593.84
2017-11-13T18:05:29.853Z,100600.47
2017-11-13T18:08:31.823Z,100603.98
2017-11-13T18:11:33.548Z,100610.98
2017-11-13T18:14:36.459Z,100615.88
2017-11-13T18:17:39.703Z,100602.67
2017-11-13T18:20:41.057Z,100613.63
2017-11-13T18:23:44.023Z,100613.63
2017-11-13T18:26:46.657Z,100607.41
2017-11-13T18:29:48.283Z,100604.36
2017-11-13T18:32:49.661Z,100606.14
2017-11-13T18:35:51.249Z,100610.92
2017-11-13T18:38:52.578Z,100611.75
2017-11-13T18:41:54.008Z,100611.80
2017-11-13T18:44:55.376Z,100614.56
2017-11-13T18:47:56.705Z,100615.95
2017-11-13T18:50:58.049Z,100626.02
2017-11-13T18:53:59.378Z,100628.22
2017-11-13T18:57:01.504Z,100626.50
2017-11-13T19:00:02.917Z,100623.31
2017-11-13T19:03:06.452Z,100630.36
2017-11-13T19:06:07.903Z,100633.83
2017-11-13T19:09:09.252Z,100635.69
2017-11-13T19:12:10.568Z,100636.63
2017-11-13T19:15:12.678Z,100645.16
2017-11-13T19:18:14.595Z,100654.78
2017-11-13T19:21:16.679Z,100661.00
2017-11-13T19:24:18.357Z,100661.34
2017-11-13T19:27:19.697Z,100657.95
2017-11-13T19:30:22.014Z,100651.89
2017-11-13T19:33:23.516Z,100659.81
2017-11-13T19:36:24.907Z,100655.01
2017-11-13T19:39:26.244Z,100651.45
2017-11-13T19:42:27.630Z,100645.81
2017-11-13T19:45:28.930Z,100655.09
2017-11-13T19:48:32.159Z,100654.25
2017-11-13T19:51:33.510Z,100653.38
2017-11-13T19:54:34.966Z,100657.30
2017-11-13T19:57:36.286Z,100651.61
2017-11-13T20:00:38.787Z,100656.45
2017-11-13T20:03:42.115Z,100667.56
2017-11-13T20:06:43.462Z,100659.67
2017-11-13T20:09:45.519Z,100671.58
2017-11-13T20:12:46.969Z,100671.70
2017-11-13T20:15:49.143Z,100681.34
2017-11-13T20:18:50.945Z,100686.20
2017-11-13T20:21:52.244Z,100686.64
2017-11-13T20:24:53.943Z,100690.63
2017-11-13T20:27:55.942Z,100695.88
2017-11-13T20:30:57.331Z,100699.00
2017-11-13T20:33:58.644Z,100702.49
2017-11-13T20:36:59.937Z,100699.00
2017-11-13T20:40:01.958Z,100701.22
2017-11-13T20:43:03.225Z,100699.05
2017-11-13T20:46:05.567Z,100708.29
2017-11-13T20:49:06.864Z,100710.03
2017-11-13T20:52:08.184Z,100720.14
2017-11-13T20:55:09.447Z,100721.01
2017-11-13T20:58:11.812Z,100721.02
2017-11-13T21:01:13.199Z,100718.80
2017-11-13T21:04:14.501Z,100719.69
2017-11-13T21:07:16.073Z,100730.25
2017-11-13T21:10:17.397Z,100729.38
2017-11-13T21:13:18.764Z,100732.89
2017-11-13T21:16:20.025Z,100725.42
2017-11-13T21:19:21.324Z,100737.69
2017-11-13T21:22:22.723Z,100745.60
2017-11-13T21:25:24.472Z,100748.66
2017-11-13T21:28:25.796Z,100742.99
2017-11-13T21:31:28.190Z,100741.11
2017-11-13T21:34:29.804Z,100749.13
2017-11-13T21:37:31.325Z,100747.96
2017-11-13T21:40:32.686Z,100746.89
2017-11-13T21:43:34.049Z,100754.47
2017-11-13T21:46:35.405Z,100751.55
2017-11-13T21:49:36.768Z,100745.59
2017-11-13T21:52:38.385Z,100749.94
2017-11-13T21:55:39.800Z,100746.41
2017-11-13T21:58:41.993Z,100741.61
2017-11-13T22:01:43.314Z,100749.55
2017-11-13T22:04:46.201Z,100742.59
2017-11-13T22:07:48.429Z,100753.08
2017-11-13T22:10:49.794Z,100746.49
2017-11-13T22:13:51.302Z,100753.06
2017-11-13T22:16:52.799Z,100763.65
2017-11-13T22:19:54.454Z,100769.36
2017-11-13T22:22:55.862Z,100758.80
2017-11-13T22:25:58.361Z,100758.38
2017-11-13T22:28:59.744Z,100757.05
2017-11-13T22:32:01.163Z,100758.41
2017-11-13T22:35:02.701Z,100762.78
2017-11-13T22:38:04.395Z,100769.81
2017-11-13T22:41:05.769Z,100767.59
2017-11-13T22:44:07.222Z,100767.59
2017-11-13T22:47:09.318Z,100764.98
2017-11-13T22:50:10.692Z,100763.23
2017-11-13T22:53:12.133Z,100763.20
2017-11-13T22:56:13.512Z,100773.72
2017-11-13T22:59:14.871Z,100771.55
2017-11-13T23:02:16.249Z,100775.51
2017-11-13T23:05:18.444Z,100777.70
2017-11-13T23:08:19.765Z,100776.82
2017-11-13T23:11:21.240Z,100774.20
2017-11-13T23:14:22.612Z,100787.80
2017-11-13T23:17:24.029Z,100781.22
2017-11-13T23:20:26.115Z,100774.64
2017-11-13T23:23:27.573Z,100791.16
2017-11-13T23:26:28.911Z,100787.78
2017-11-13T23:29:31.082Z,100792.20
2017-11-13T23:32:32.975Z,100791.31
2017-11-13T23:35:34.373Z,100799.68
2017-11-13T23:38:35.777Z,100795.28
2017-11-13T23:41:37.102Z,100789.09
2017-11-13T23:44:38.640Z,100798.77
2017-11-13T23:47:40.718Z,100793.06
2017-11-13T23:50:42.072Z,100775.95
2017-11-13T23:53:43.519Z,100787.38
2017-11-13T23:56:44.978Z,100790.90
2017-11-13T23:59:46.363Z,100791.33
